Savannah, Georgia
Current Conditions -  °F | °C
As of 5:22 AM on Saturday 20 Dec 2014 (Local Time) from KSVN Reporting Station
Scattered Clouds Scattered Clouds  
Wind Chill: 11°   Ceiling: Unl
Heat Index: 11°   Visibility: 10mi
Dew Point: 11°   Wind: 5mph
Humidity: 100%   Direction: 30°NNE
Pressure: 30.11"   Gusts: NA
Location:  32.08°N, 81.09°W
Report Text: KSVN 201022Z AUTO 03004KT 10SM SCT060 11/11 A3011 RMK AO2 RAE1007DZB1007E1023
Loading
Personal Weather Stations






























Interactive Weather Map New forecast layout! Learn more

10-Day Weather Forecast

Advertisements
Track Severe Weather on mobile